CW3712 Weather Reports


Display with metric or nautical units.
time (UTC)temp
F
wind
direction
speed
MPH
gust
MPH
rain 1hr
in
rain 24hr
in
rain mn
in
humidity
%
barometer
mb
20190116135710 34 277 3.0 0.0 0.00 0.00 0.00 54 1019.9
20190116134716 33 279 0.0 0.0 0.00 0.00 0.00 54 1019.8
20190116133706 33 282 0.0 0.0 0.00 0.00 0.00 54 1019.9
20190116132722 32 283 1.0 0.0 0.00 0.00 0.00 55 1019.9
20190116131708 32 284 4.0 0.0 0.00 0.00 0.00 54 1019.9
20190116130712 31 286 3.0 0.0 0.00 0.00 0.00 55 1019.7
20190116125718 31 291 0.0 0.0 0.00 0.00 0.00 55 1019.8
20190116124709 31 291 5.0 0.0 0.00 0.00 0.00 54 1020.0
20190116123716 31 291 0.0 0.0 0.00 0.00 0.00 55 1019.7
20190116122722 31 292 2.0 0.0 0.00 0.00 0.00 53 1020.0
20190116121709 30 293 0.0 0.0 0.00 0.00 0.00 55 1019.7
20190116120715 31 293 1.0 0.0 0.00 0.00 0.00 53 1019.7
20190116115718 30 294 1.0 0.0 0.00 0.00 0.00 54 1019.9
20190116114705 30 294 0.0 0.0 0.00 0.00 0.00 54 1019.7
20190116113718 30 294 2.0 0.0 0.00 0.00 0.00 53 1019.7
20190116112708 31 294 0.0 0.0 0.00 0.00 0.00 52 1019.6
20190116111715 31 294 0.0 0.0 0.00 0.00 0.00 53 1019.8
20190116110702 30 294 0.0 0.0 0.00 0.00 0.00 54 1019.9
20190116105711 30 294 2.0 0.0 0.00 0.00 0.00 53 1019.9
20190116104722 29 295 0.0 0.0 0.00 0.00 0.00 53 1019.8
20190116103710 29 295 1.0 0.0 0.00 0.00 0.00 53 1019.5
20190116101703 29 295 1.0 0.0 0.00 0.00 0.00 52 1019.5
20190116100709 30 295 0.0 0.0 0.00 0.00 0.00 51 1019.2
20190116095709 30 295 1.0 0.0 0.00 0.00 0.00 51 1019.3
20190116094700 30 296 1.0 0.0 0.00 0.00 0.00 51 1019.4
20190116093711 31 296 1.0 0.0 0.00 0.00 0.00 50 1019.7
20190116092721 31 296 1.0 0.0 0.00 0.00 0.00 49 1019.5
20190116091706 30 296 2.0 0.0 0.00 0.00 0.00 50 1019.6
20190116090711 30 296 2.0 0.0 0.00 0.00 0.00 50 1019.7
20190116085703 29 297 2.0 0.0 0.00 0.00 0.00 50 1019.9
20190116084713 29 297 1.0 0.0 0.00 0.00 0.00 50 1019.6
20190116083715 30 297 3.0 0.0 0.00 0.00 0.00 50 1019.7
20190116082701 30 297 1.0 0.0 0.00 0.00 0.00 50 1019.9
20190116081709 30 297 1.0 0.0 0.00 0.00 0.00 50 1019.9
20190116080704 30 297 0.0 0.0 0.00 0.00 0.00 50 1020.3
20190116075709 30 298 2.0 0.0 0.00 0.00 0.00 51 1020.1
20190116074715 29 298 1.0 0.0 0.00 0.00 0.00 52 1020.3
20190116073705 29 298 0.0 0.0 0.00 0.00 0.00 52 1020.4
20190116072714 30 298 0.0 0.0 0.00 0.00 0.00 51 1020.4
20190116071717 30 298 0.0 0.0 0.00 0.00 0.00 51 1020.4
20190116070705 30 298 0.0 0.0 0.00 0.00 0.00 51 1020.7
20190116065713 30 298 0.0 0.0 0.00 0.00 0.00 51 1020.4
20190116064724 31 298 0.0 0.0 0.00 0.00 0.00 51 1020.4
20190116063709 30 298 0.0 0.0 0.00 0.00 0.00 52 1020.3
20190116062717 30 298 0.0 0.0 0.00 0.00 0.00 52 1020.4
20190116061711 29 298 0.0 0.0 0.00 0.00 0.00 53 1020.5
20190116060700 31 298 0.0 0.0 0.00 0.00 0.00 51 1020.5
20190116055705 31 298 0.0 0.0 0.00 0.00 0.00 52 1020.4
20190116054713 30 298 0.0 0.0 0.00 0.00 0.00 53 1020.7
20190116053702 29 298 0.0 0.0 0.00 0.00 0.00 54 1020.9
20190116052711 29 298 0.0 0.0 0.00 0.00 0.00 53 1021.0
20190116051718 29 298 0.0 0.0 0.00 0.00 0.00 53 1021.0
20190116050706 30 298 0.0 0.0 0.00 0.00 0.00 51 1021.1
20190116045703 30 298 0.0 0.0 0.00 0.00 0.00 51 1021.3
20190116044711 31 298 0.0 0.0 0.00 0.00 0.00 51 1021.3
20190116043717 31 298 0.0 0.0 0.00 0.00 0.00 49 1021.4
20190116042709 32 298 0.0 0.0 0.00 0.00 0.00 50 1021.7
20190116041718 31 298 0.0 0.0 0.00 0.00 0.00 50 1021.7
20190116040709 30 298 0.0 0.0 0.00 0.00 0.00 52 1021.9
20190116035711 31 298 0.0 0.0 0.00 0.00 0.00 48 1021.8
20190116034718 31 298 0.0 0.0 0.00 0.00 0.00 47 1021.9
20190116033705 33 298 0.0 0.0 0.00 0.00 0.00 46 1021.9
20190116032717 32 298 0.0 0.0 0.00 0.00 0.00 51 1022.0
20190116031722 29 298 0.0 0.0 0.00 0.00 0.00 52 1021.9
20190116030648 30 298 0.0 0.0 0.00 0.00 0.00 48 1022.0
20190116025718 32 298 0.0 0.0 0.00 0.00 0.00 47 1022.2
20190116024710 32 298 0.0 0.0 0.00 0.00 0.00 47 1022.2
20190116023719 31 298 0.0 0.0 0.00 0.00 0.00 47 1022.3
20190116022705 32 298 0.0 0.0 0.00 0.00 0.00 44 1022.3
20190116021716 34 298 0.0 0.0 0.00 0.00 0.00 43 1022.2
20190116015705 32 298 0.0 0.0 0.00 0.00 0.00 44 1022.2
20190116014713 34 298 0.0 0.0 0.00 0.00 0.00 43 1022.1
20190116013705 34 298 0.0 0.0 0.00 0.00 0.00 42 1022.3
20190116012716 35 298 0.0 0.0 0.00 0.00 0.00 40 1022.4
20190116011718 36 298 0.0 0.0 0.00 0.00 0.00 40 1022.4
20190116010704 36 298 0.0 0.0 0.00 0.00 0.00 38 1022.3
20190116005715 36 298 0.0 0.0 0.00 0.00 0.00 38 1022.5
20190116004710 37 298 0.0 0.0 0.00 0.00 0.00 38 1022.3
20190116003714 37 298 0.0 0.0 0.00 0.00 0.00 37 1022.7
20190116002700 37 298 0.0 0.0 0.00 0.00 0.00 38 1022.3
20190116001713 37 298 0.0 0.0 0.00 0.00 0.00 38 1022.2
20190116000702 37 298 0.0 0.0 0.00 0.00 0.00 37 1022.4
20190115235711 37 298 0.0 0.0 0.00 0.00 0.00 37 1022.4
20190115234719 37 298 0.0 0.0 0.00 0.00 0.00 37 1022.5
20190115233709 37 298 0.0 0.0 0.00 0.00 0.00 39 1022.2
20190115232718 35 298 0.0 0.0 0.00 0.00 0.00 40 1022.4
20190115231702 34 298 0.0 0.0 0.00 0.00 0.00 42 1022.5
20190115230653 34 298 0.0 0.0 0.00 0.00 0.00 40 1022.2
20190115225704 35 298 0.0 0.0 0.00 0.00 0.00 39 1022.2
20190115224713 34 298 0.0 0.0 0.00 0.00 0.00 39 1022.2
20190115223717 35 298 0.0 0.0 0.00 0.00 0.00 38 1022.3
20190115222701 35 298 0.0 0.0 0.00 0.00 0.00 38 1022.3
20190115221715 35 298 0.0 0.0 0.00 0.00 0.00 37 1022.1
20190115220708 35 298 0.0 0.0 0.00 0.00 0.00 37 1022.1
20190115215709 35 298 1.0 0.0 0.00 0.00 0.00 36 1021.9
20190115214717 36 298 0.0 0.0 0.00 0.00 0.00 35 1022.0
20190115213706 36 298 0.0 0.0 0.00 0.00 0.00 35 1021.9
20190115212714 36 298 0.0 0.0 0.00 0.00 0.00 35 1021.9
20190115211704 36 297 0.0 0.0 0.00 0.00 0.00 34 1021.8
20190115210651 37 295 1.0 0.0 0.00 0.00 0.00 33 1021.6
20190115205703 37 293 0.0 0.0 0.00 0.00 0.00 34 1021.7
20190115204709 36 292 1.0 0.0 0.00 0.00 0.00 35 1021.6
20190115203715 36 289 1.0 0.0 0.00 0.00 0.00 35 1021.6
20190115202659 38 289 1.0 0.0 0.00 0.00 0.00 33 1021.8
20190115201714 37 289 0.0 0.0 0.00 0.00 0.00 36 1021.6
20190115200705 37 289 0.0 0.0 0.00 0.00 0.00 34 1021.7
20190115195706 38 289 1.0 0.0 0.00 0.00 0.00 34 1021.8
20190115194714 38 289 0.0 0.0 0.00 0.00 0.00 34 1021.6
20190115193703 37 289 0.0 0.0 0.00 0.00 0.00 35 1021.7
20190115192716 37 290 3.0 0.0 0.00 0.00 0.00 35 1021.6
20190115190651 37 291 2.0 0.0 0.00 0.00 0.00 35 1021.5
20190115185704 36 302 2.0 0.0 0.00 0.00 0.00 36 1021.6
20190115184713 37 298 2.0 0.0 0.00 0.00 0.00 35 1021.9
20190115183717 35 303 1.0 0.0 0.00 0.00 0.00 36 1021.8
20190115182704 36 283 0.0 0.0 0.00 0.00 0.00 35 1021.7
20190115180702 36 289 1.0 0.0 0.00 0.00 0.00 35 1021.9
20190115175705 35 285 2.0 0.0 0.00 0.00 0.00 36 1022.0
20190115174714 34 349 0.0 0.0 0.00 0.00 0.00 38 1022.0
20190115173705 33 351 0.0 0.0 0.00 0.00 0.00 38 1022.3
20190115172714 34 351 2.0 0.0 0.00 0.00 0.00 38 1022.4
20190115171700 32 348 1.0 0.0 0.00 0.00 0.00 38 1022.6
20190115170651 32 349 0.0 0.0 0.00 0.00 0.00 37 1022.7
20190115165703 32 323 0.0 0.0 0.00 0.00 0.00 37 1023.1
20190115164714 33 312 0.0 0.0 0.00 0.00 0.00 37 1023.1
20190115163721 32 308 0.0 0.0 0.00 0.00 0.00 38 1023.4
20190115162708 32 317 12.0 0.0 0.00 0.00 0.00 37 1023.5
20190115161718 32 322 0.0 0.0 0.00 0.00 0.00 38 1023.8
20190115160707 31 328 2.0 0.0 0.00 0.00 0.00 39 1023.5
20190115155710 31 329 9.0 0.0 0.00 0.00 0.00 38 1023.7
20190115154719 30 340 0.0 0.0 0.00 0.00 0.00 39 1023.9
20190115153705 30 311 2.0 0.0 0.00 0.00 0.00 40 1023.9
20190115152714 30 322 11.0 0.0 0.00 0.00 0.00 40 1023.9
20190115151722 29 330 0.0 0.0 0.00 0.00 0.00 39 1024.0
20190115150707 30 331 0.0 0.0 0.00 0.00 0.00 39 1024.1
20190115145700 29 334 0.0 0.0 0.00 0.00 0.00 39 1024.0
20190115144711 29 314 2.0 0.0 0.00 0.00 0.00 38 1023.9
20190115143715 28 334 2.0 0.0 0.00 0.00 0.00 39 1023.9
20190115142703 29 334 4.0 0.0 0.00 0.00 0.00 37 1023.9
20190115141716 28 325 0.0 0.0 0.00 0.00 0.00 38 1023.8
20190115140710 28 345 5.0 0.0 0.00 0.00 0.00 38 1023.5